Time;durP1;ratioP1;P1;durP2;ratioP2;P2;SDS_P1;SDS_P2;PMS_P1;PMS_P2;Temp;Humidity;BMP_temperature;BMP_pressure;BME280_temperature;BME280_humidity;BME280_pressure;Samples;Min_cycle;Max_cycle;Signal;HPM_P1;HPM_P2
2022/07/24 00:00:15;;;;;;;4.75;1.70;;;;;;;15.89;64.81;101323.58;1647725;84;21118;-86
2022/07/24 00:02:44;;;;;;;2.55;1.75;;;;;;;15.98;64.85;101324.59;1658986;84;21070;-86
2022/07/24 00:05:10;;;;;;;5.20;1.82;;;;;;;16.07;64.84;101316.29;1663868;84;21119;-86
2022/07/24 00:07:37;;;;;;;4.22;1.67;;;;;;;16.15;64.80;101311.50;1653479;84;21082;-85
2022/07/24 00:10:05;;;;;;;4.65;1.75;;;;;;;16.25;64.79;101308.06;1698893;82;21102;-85
2022/07/24 00:12:32;;;;;;;5.65;1.90;;;;;;;16.32;64.77;101304.59;1680946;83;21125;-86
2022/07/24 00:14:58;;;;;;;4.95;1.67;;;;;;;16.39;64.68;101304.23;1697389;84;21767;-85
2022/07/24 00:17:25;;;;;;;2.67;1.70;;;;;;;16.40;64.65;101297.58;1697185;84;22000;-85
2022/07/24 00:19:52;;;;;;;4.62;1.77;;;;;;;16.46;64.67;101295.01;1679706;84;20977;-85
2022/07/24 00:22:19;;;;;;;3.10;1.80;;;;;;;16.51;64.64;101296.37;1686148;83;21201;-86
2022/07/24 00:24:45;;;;;;;4.45;1.77;;;;;;;16.55;64.59;101291.52;1670502;84;21034;-86
2022/07/24 00:27:12;;;;;;;3.80;1.52;;;;;;;16.59;64.63;101290.70;1679764;84;21799;-86
2022/07/24 00:29:39;;;;;;;3.98;1.90;;;;;;;16.61;64.61;101282.72;1673319;85;21052;-86
2022/07/24 00:32:06;;;;;;;2.17;1.72;;;;;;;16.60;64.61;101284.48;1673177;84;21088;-85
2022/07/24 00:34:33;;;;;;;4.37;1.65;;;;;;;16.61;64.75;101281.39;1673410;85;21076;-86
2022/07/24 00:36:59;;;;;;;5.87;2.00;;;;;;;16.63;64.83;101281.88;1673454;85;21131;-86
2022/07/24 00:39:26;;;;;;;4.78;2.00;;;;;;;16.61;64.93;101278.73;1673429;85;21763;-85
2022/07/24 00:41:53;;;;;;;3.40;2.00;;;;;;;16.60;65.13;101270.33;1669715;85;21116;-85
2022/07/24 00:44:20;;;;;;;4.33;2.08;;;;;;;16.62;65.20;101271.22;1672870;84;21164;-85
2022/07/24 00:46:47;;;;;;;6.33;2.33;;;;;;;16.60;65.26;101265.00;1672767;84;21583;-85
2022/07/24 00:49:16;;;;;;;6.08;1.82;;;;;;;16.57;65.32;101267.63;1672963;84;21067;-86
2022/07/24 00:51:44;;;;;;;4.25;2.00;;;;;;;16.51;65.37;101265.80;1657828;85;21529;-86
2022/07/24 00:54:11;;;;;;;3.92;1.92;;;;;;;16.47;65.52;101267.98;1667078;83;21017;-85
2022/07/24 00:56:39;;;;;;;5.47;1.92;;;;;;;16.43;65.66;101269.73;1674583;84;21048;-85
2022/07/24 00:59:05;;;;;;;5.53;1.67;;;;;;;16.42;65.79;101270.63;1633077;84;21004;-85
2022/07/24 01:01:32;;;;;;;3.17;1.80;;;;;;;16.40;65.89;101266.14;1620680;88;21032;-85
2022/07/24 01:03:59;;;;;;;4.05;1.75;;;;;;;16.38;66.07;101266.12;1614647;87;21711;-85
2022/07/24 01:06:26;;;;;;;5.58;1.90;;;;;;;16.39;66.20;101265.27;1621027;87;21002;-85
2022/07/24 01:08:53;;;;;;;3.87;2.12;;;;;;;16.38;66.29;101263.47;1630457;85;21025;-85
2022/07/24 01:11:20;;;;;;;4.58;2.05;;;;;;;16.41;66.45;101259.97;1630033;86;21059;-87
2022/07/24 01:13:48;;;;;;;7.97;2.27;;;;;;;16.42;66.61;101257.75;1630242;85;21416;-85
2022/07/24 01:16:15;;;;;;;3.65;1.77;;;;;;;16.45;66.78;101261.77;1630762;85;21667;-86
2022/07/24 01:18:41;;;;;;;4.05;1.98;;;;;;;16.48;66.88;101254.72;1614399;86;21594;-86
2022/07/24 01:21:08;;;;;;;3.37;1.75;;;;;;;16.55;66.91;101258.30;1630619;85;21017;-86
2022/07/24 01:23:38;;;;;;;3.33;1.57;;;;;;;16.60;67.02;101253.92;1630653;85;21027;-86
2022/07/24 01:26:08;;;;;;;4.12;1.55;;;;;;;16.66;67.00;101249.10;1630478;85;21089;-86
2022/07/24 01:28:35;;;;;;;3.20;1.98;;;;;;;16.69;67.05;101252.67;1629417;86;22576;-86
2022/07/24 01:31:02;;;;;;;3.25;1.60;;;;;;;16.74;67.10;101252.69;1629213;85;21094;-86
2022/07/24 01:33:29;;;;;;;3.47;2.37;;;;;;;16.76;67.15;101252.30;1629216;85;21078;-86
2022/07/24 01:35:56;;;;;;;4.90;1.80;;;;;;;16.79;67.17;101255.41;1629404;85;21110;-86
2022/07/24 01:38:22;;;;;;;4.72;2.00;;;;;;;16.81;67.26;101260.30;1629371;85;21165;-86
2022/07/24 01:40:49;;;;;;;2.47;1.60;;;;;;;16.88;67.38;101262.16;1629015;85;21714;-86
2022/07/24 01:43:16;;;;;;;4.50;1.35;;;;;;;16.95;67.43;101262.66;1629036;85;21142;-86
2022/07/24 01:45:43;;;;;;;2.77;1.55;;;;;;;17.02;67.44;101262.23;1629121;85;21607;-86
2022/07/24 01:48:10;;;;;;;2.98;1.52;;;;;;;17.06;67.47;101263.62;1629132;85;21465;-86
2022/07/24 01:50:36;;;;;;;2.37;1.30;;;;;;;17.14;67.51;101270.31;1629152;85;21106;-86
2022/07/24 01:53:03;;;;;;;2.37;1.00;;;;;;;17.19;67.45;101267.25;1628994;85;21775;-85
2022/07/24 01:55:31;;;;;;;1.92;1.45;;;;;;;17.25;67.46;101265.06;1628776;86;21382;-85
2022/07/24 01:57:57;;;;;;;1.50;1.20;;;;;;;17.30;67.55;101261.97;1647177;83;21094;-86
2022/07/24 02:00:24;;;;;;;3.95;1.20;;;;;;;17.32;67.51;101261.53;1672610;83;21101;-86
2022/07/24 02:02:51;;;;;;;2.62;1.40;;;;;;;17.37;67.52;101261.58;1672245;83;21157;-86
2022/07/24 02:05:18;;;;;;;1.10;1.00;;;;;;;17.37;67.50;101264.23;1692565;83;21613;-86
2022/07/24 02:07:45;;;;;;;4.25;1.27;;;;;;;17.44;67.55;101262.06;1703090;82;21557;-86
2022/07/24 02:10:13;;;;;;;2.70;1.32;;;;;;;17.46;67.56;101261.63;1708971;83;21075;-86
2022/07/24 02:12:40;;;;;;;0.98;0.90;;;;;;;17.51;67.58;101262.52;1690669;82;21123;-85
2022/07/24 02:15:07;;;;;;;2.47;1.22;;;;;;;17.56;67.60;101261.22;1672465;83;21095;-87
2022/07/24 02:17:34;;;;;;;1.20;0.82;;;;;;;17.59;67.62;101270.56;1672359;83;22582;-86
2022/07/24 02:20:01;;;;;;;1.45;1.15;;;;;;;17.62;67.68;101262.11;1672331;83;21115;-86
2022/07/24 02:22:28;;;;;;;3.25;1.30;;;;;;;17.66;67.59;101257.28;1716332;82;21082;-86
2022/07/24 02:24:55;;;;;;;1.65;1.05;;;;;;;17.69;67.53;101259.05;1699546;83;21082;-86
2022/07/24 02:27:21;;;;;;;1.20;0.60;;;;;;;17.67;67.51;101259.49;1672604;83;21131;-86
2022/07/24 02:29:48;;;;;;;1.55;1.30;;;;;;;17.66;67.55;101261.27;1672548;83;22540;-86
2022/07/24 02:32:15;;;;;;;0.90;0.80;;;;;;;17.65;67.65;101259.48;1672239;83;21070;-86
2022/07/24 02:34:41;;;;;;;1.22;1.02;;;;;;;17.65;67.67;101267.91;1672576;83;21078;-86
2022/07/24 02:37:08;;;;;;;2.90;1.00;;;;;;;17.63;67.83;101263.91;1672789;83;21280;-87
2022/07/24 02:39:35;;;;;;;1.52;0.95;;;;;;;17.64;67.91;101268.36;1687285;83;21122;-86
2022/07/24 02:42:02;;;;;;;0.90;0.60;;;;;;;17.64;67.96;101263.45;1694926;84;22994;-86
2022/07/24 02:44:28;;;;;;;1.80;0.80;;;;;;;17.62;68.11;101267.44;1694873;83;21042;-86
2022/07/24 02:46:55;;;;;;;1.32;0.57;;;;;;;17.61;68.13;101271.45;1694652;83;21066;-86
2022/07/24 02:49:22;;;;;;;1.37;0.60;;;;;;;17.61;68.28;101266.12;1673885;83;21079;-85
2022/07/24 02:51:49;;;;;;;0.85;0.70;;;;;;;17.64;68.43;101270.11;1682580;84;21083;-86
2022/07/24 02:54:16;;;;;;;1.22;0.82;;;;;;;17.67;68.59;101268.81;1682668;84;21777;-86
2022/07/24 02:56:43;;;;;;;0.62;0.62;;;;;;;17.67;68.56;101274.13;1682246;85;21468;-86
2022/07/24 02:59:10;;;;;;;0.80;0.80;;;;;;;17.68;68.70;101275.89;1651539;85;21146;-86
2022/07/24 03:01:37;;;;;;;1.27;0.70;;;;;;;17.68;68.73;101278.14;1670966;84;21092;-86
2022/07/24 03:04:04;;;;;;;1.07;0.98;;;;;;;17.72;68.79;101283.45;1648684;85;21106;-86
2022/07/24 03:06:30;;;;;;;2.15;0.57;;;;;;;17.73;68.86;101290.13;1671290;85;21751;-86
2022/07/24 03:08:57;;;;;;;1.98;0.75;;;;;;;17.75;68.89;101284.81;1671090;85;21123;-86
2022/07/24 03:11:24;;;;;;;0.65;0.65;;;;;;;17.78;68.99;101281.72;1671294;84;22239;-86
2022/07/24 03:13:50;;;;;;;1.72;0.85;;;;;;;17.80;69.04;101286.61;1670837;84;21103;-86
2022/07/24 03:16:18;;;;;;;0.60;0.60;;;;;;;17.83;69.12;101286.62;1670778;85;21111;-86
2022/07/24 03:18:48;;;;;;;1.22;1.00;;;;;;;17.88;69.20;101280.89;1666980;84;21765;-86
2022/07/24 03:21:15;;;;;;;3.92;1.50;;;;;;;17.91;69.22;101276.48;1671153;84;21079;-86
2022/07/24 03:23:42;;;;;;;1.57;1.30;;;;;;;17.94;69.37;101277.80;1671163;84;21111;-86
2022/07/24 03:26:09;;;;;;;1.77;1.47;;;;;;;17.92;69.31;101277.80;1671040;85;21623;-86
2022/07/24 03:28:35;;;;;;;2.02;1.15;;;;;;;17.94;69.42;101286.67;1671319;84;21084;-86
2022/07/24 03:31:02;;;;;;;3.70;1.50;;;;;;;17.97;69.50;101285.81;1671333;85;21743;-86
2022/07/24 03:33:29;;;;;;;1.45;1.25;;;;;;;17.99;69.56;101290.70;1671307;84;21163;-86
2022/07/24 03:35:57;;;;;;;1.80;1.52;;;;;;;18.03;69.71;101289.82;1671520;85;21075;-86
2022/07/24 03:38:24;;;;;;;2.65;1.62;;;;;;;18.04;69.71;101287.17;1672015;84;21578;-86
2022/07/24 03:40:51;;;;;;;1.85;1.35;;;;;;;18.07;69.79;101290.27;1668478;84;21073;-87
2022/07/24 03:43:18;;;;;;;2.85;1.98;;;;;;;18.10;69.92;101291.63;1704685;83;21743;-87
2022/07/24 03:45:45;;;;;;;3.25;1.80;;;;;;;18.11;69.85;101298.71;1664130;83;21150;-87
2022/07/24 03:48:11;;;;;;;2.60;1.95;;;;;;;18.17;70.03;101296.50;1649800;84;21073;-86
2022/07/24 03:50:38;;;;;;;4.33;2.33;;;;;;;18.18;70.00;101293.85;1669053;83;21126;-87
2022/07/24 03:53:05;;;;;;;4.15;2.55;;;;;;;18.18;70.09;101289.86;1665046;83;21121;-86
2022/07/24 03:55:31;;;;;;;2.62;2.40;;;;;;;18.18;70.22;101295.63;1663936;83;21730;-87
2022/07/24 03:57:58;;;;;;;4.83;2.80;;;;;;;18.18;70.40;101297.84;1669833;83;21062;-87
2022/07/24 04:00:25;;;;;;;5.28;2.65;;;;;;;18.20;70.38;101293.41;1665639;84;21112;-87
2022/07/24 04:02:52;;;;;;;3.52;2.40;;;;;;;18.25;70.48;101296.98;1665982;84;21051;-87
2022/07/24 04:05:27;;;;;;;3.50;2.42;;;;;;;18.32;70.45;101295.65;1665690;86;21112;-86
2022/07/24 04:07:54;;;;;;;4.08;2.52;;;;;;;18.34;70.44;101301.45;1665941;84;21874;-87
2022/07/24 04:10:21;;;;;;;4.72;2.77;;;;;;;18.34;70.40;101297.87;1665547;86;21559;-86
2022/07/24 04:12:47;;;;;;;4.70;3.02;;;;;;;18.39;70.53;101298.78;1660885;84;21086;-86
2022/07/24 04:15:14;;;;;;;5.20;2.60;;;;;;;18.40;70.43;101301.45;1661496;85;21123;-87
2022/07/24 04:17:41;;;;;;;2.90;2.65;;;;;;;18.43;70.43;101305.89;1666088;84;21502;-86
2022/07/24 04:20:09;;;;;;;2.75;2.50;;;;;;;18.44;70.43;101305.02;1668764;84;22371;-87
2022/07/24 04:22:36;;;;;;;5.05;2.70;;;;;;;18.47;70.47;101313.03;1656464;85;21072;-87
2022/07/24 04:25:03;;;;;;;3.55;2.55;;;;;;;18.52;70.47;101305.91;1666062;84;21104;-86
2022/07/24 04:27:34;;;;;;;3.40;2.67;;;;;;;18.60;70.41;101315.23;1666021;84;21527;-86
2022/07/24 04:30:02;;;;;;;3.45;2.30;;;;;;;18.65;70.34;101314.80;1665486;85;21124;-86
2022/07/24 04:32:27;;;;;;;2.62;1.92;;;;;;;18.71;70.22;101308.13;1665346;84;23118;-87
2022/07/24 04:34:54;;;;;;;3.27;2.10;;;;;;;18.75;70.15;101312.61;1666933;84;21238;-87
2022/07/24 04:37:21;;;;;;;2.58;2.02;;;;;;;18.79;70.11;101317.05;1667592;84;21041;-86
2022/07/24 04:39:47;;;;;;;2.62;2.40;;;;;;;18.80;70.07;101312.17;1664314;86;21121;-87
2022/07/24 04:42:14;;;;;;;4.60;2.30;;;;;;;18.81;70.07;101315.30;1667881;84;21045;-87
2022/07/24 04:44:41;;;;;;;4.85;2.45;;;;;;;18.83;70.01;101317.52;1663876;84;21769;-87
2022/07/24 04:47:08;;;;;;;2.80;2.05;;;;;;;18.86;70.05;101315.73;1665378;84;21100;-86
2022/07/24 04:49:34;;;;;;;4.08;2.00;;;;;;;18.83;69.96;101324.19;1665934;84;21100;-86
2022/07/24 04:52:01;;;;;;;3.50;2.65;;;;;;;18.85;69.92;101328.19;1665674;84;21088;-86
2022/07/24 04:54:28;;;;;;;2.98;2.20;;;;;;;18.83;69.89;101324.64;1666062;85;21109;-86
2022/07/24 04:56:55;;;;;;;2.50;2.20;;;;;;;18.87;69.88;101326.41;1678509;84;21751;-87
2022/07/24 04:59:22;;;;;;;4.58;2.40;;;;;;;18.91;69.90;101327.30;1669212;85;21018;-87
2022/07/24 05:01:49;;;;;;;6.15;2.37;;;;;;;18.95;69.79;101329.95;1668572;84;21031;-87
2022/07/24 05:04:16;;;;;;;2.40;2.10;;;;;;;18.97;69.70;101329.50;1669932;85;22042;-87
2022/07/24 05:06:43;;;;;;;4.08;2.33;;;;;;;19.03;69.79;101329.53;1660141;84;21686;-88
2022/07/24 05:09:09;;;;;;;4.00;2.50;;;;;;;19.09;69.70;101329.97;1663296;84;21724;-87
2022/07/24 05:11:36;;;;;;;3.83;2.25;;;;;;;19.17;69.56;101334.84;1655695;84;21098;-86
2022/07/24 05:14:03;;;;;;;2.35;2.10;;;;;;;19.27;69.53;101343.71;1655814;84;21101;-87
2022/07/24 05:16:30;;;;;;;7.45;2.17;;;;;;;19.33;69.32;101350.41;1661134;84;21125;-87
2022/07/24 05:18:59;;;;;;;3.85;1.95;;;;;;;19.33;69.17;101348.16;1665701;84;21100;-87
2022/07/24 05:21:26;;;;;;;6.20;2.40;;;;;;;19.39;69.14;101347.71;1655187;84;23009;-87
2022/07/24 05:23:52;;;;;;;3.17;2.50;;;;;;;19.45;69.00;101348.15;1663759;84;21078;-86
2022/07/24 05:26:19;;;;;;;2.45;2.12;;;;;;;19.51;68.89;101351.25;1711740;82;21043;-87
2022/07/24 05:28:46;;;;;;;2.55;2.25;;;;;;;19.54;68.75;101349.89;1711229;82;21410;-87
2022/07/24 05:31:18;;;;;;;4.67;2.02;;;;;;;19.61;68.74;101348.98;1711594;82;21003;-87
2022/07/24 05:33:45;;;;;;;2.37;2.17;;;;;;;19.69;68.71;101347.20;1711683;82;21737;-87
2022/07/24 05:36:12;;;;;;;2.70;1.82;;;;;;;19.92;68.62;101348.47;1711521;82;21130;-87
2022/07/24 05:38:40;;;;;;;2.12;1.85;;;;;;;20.37;68.92;101344.25;1690991;83;21058;-87
2022/07/24 05:41:08;;;;;;;2.17;1.75;;;;;;;22.53;71.76;101332.70;1674190;83;21137;-92
2022/07/24 05:43:38;;;;;;;4.60;2.08;;;;;;;25.43;69.82;101337.82;1648325;84;21135;-92
2022/07/24 05:46:05;;;;;;;3.20;1.92;;;;;;;27.04;64.22;101335.20;1669532;84;21707;-93
2022/07/24 05:48:34;;;;;;;3.12;1.80;;;;;;;27.04;60.73;101334.72;1670249;84;21119;-94
2022/07/24 05:51:01;;;;;;;2.80;2.10;;;;;;;26.83;59.32;101346.27;1673807;83;21070;-87
2022/07/24 05:53:27;;;;;;;3.17;1.85;;;;;;;26.38;58.06;101355.77;1670927;84;21752;-87
2022/07/24 05:55:56;;;;;;;2.92;1.62;;;;;;;25.79;57.11;101358.84;1669645;85;21093;-87
2022/07/24 05:58:22;;;;;;;2.20;1.90;;;;;;;25.11;57.34;101361.55;1667666;84;21851;-88
2022/07/24 06:00:49;;;;;;;3.92;1.90;;;;;;;24.48;57.21;101365.30;1669269;85;21146;-87
2022/07/24 06:03:19;;;;;;;1.77;1.62;;;;;;;23.86;57.52;101365.28;1660362;85;21091;-87
2022/07/24 06:05:46;;;;;;;4.08;2.00;;;;;;;23.37;57.99;101378.30;1686587;84;21106;-87
2022/07/24 06:08:12;;;;;;;4.92;1.77;;;;;;;22.87;58.25;101380.01;1678170;84;21637;-87
2022/07/24 06:10:39;;;;;;;2.83;1.82;;;;;;;22.49;58.79;101373.44;1677117;84;22885;-88
2022/07/24 06:13:10;;;;;;;5.97;2.95;;;;;;;22.21;59.15;101377.80;1678620;83;21015;-87
2022/07/24 06:15:36;;;;;;;2.95;2.27;;;;;;;21.94;59.60;101381.27;1665547;84;21570;-86
2022/07/24 06:18:04;;;;;;;3.12;2.10;;;;;;;21.77;59.92;101377.00;1673975;83;21961;-87
2022/07/24 06:20:31;;;;;;;2.85;2.10;;;;;;;21.70;60.35;101377.53;1678357;84;21627;-87
2022/07/24 06:22:58;;;;;;;3.98;2.22;;;;;;;21.64;60.44;101386.53;1682126;84;21744;-87
2022/07/24 06:25:29;;;;;;;3.83;2.05;;;;;;;21.55;60.54;101379.47;1682035;84;22021;-86
2022/07/24 06:28:09;;;;;;;3.45;1.98;;;;;;;21.58;60.75;101374.52;1678738;84;21093;-86
2022/07/24 06:30:36;;;;;;;2.40;2.00;;;;;;;21.63;60.98;101379.38;1673782;84;21131;-87
2022/07/24 06:33:03;;;;;;;1.80;1.70;;;;;;;21.66;60.84;101381.12;1685256;83;21095;-87
2022/07/24 06:35:32;;;;;;;3.12;2.25;;;;;;;21.70;60.94;101381.55;1682360;85;21772;-87
2022/07/24 06:38:00;;;;;;;2.58;1.90;;;;;;;21.72;60.86;101375.73;1681009;85;21632;-87
2022/07/24 06:40:27;;;;;;;2.77;1.87;;;;;;;21.76;60.81;101383.28;1683311;85;21001;-87
2022/07/24 06:42:54;;;;;;;3.45;2.40;;;;;;;21.80;60.74;101379.66;1682916;85;21527;-88
2022/07/24 06:45:20;;;;;;;5.80;3.10;;;;;;;21.77;60.56;101383.23;1690697;84;21047;-87
2022/07/24 06:47:47;;;;;;;3.30;1.80;;;;;;;21.79;60.75;101386.81;1683660;84;21805;-88
2022/07/24 06:50:18;;;;;;;4.00;1.98;;;;;;;21.89;60.66;101390.27;1689216;84;21004;-87
2022/07/24 06:52:45;;;;;;;3.08;2.55;;;;;;;22.06;60.60;101384.24;1693585;83;21000;-87
2022/07/24 06:55:12;;;;;;;4.33;3.27;;;;;;;22.27;60.54;101387.13;1694569;83;21455;-87
2022/07/24 06:57:39;;;;;;;4.67;2.95;;;;;;;22.51;60.38;101393.95;1694791;83;21468;-88
2022/07/24 07:00:09;;;;;;;3.15;2.37;;;;;;;22.61;59.64;101385.77;1683734;84;21740;-87
2022/07/24 07:02:36;;;;;;;3.65;2.27;;;;;;;22.71;59.29;101391.42;1690917;84;21043;-87
2022/07/24 07:05:05;;;;;;;3.67;2.12;;;;;;;22.90;59.08;101396.08;1691166;84;21007;-88
2022/07/24 07:07:31;;;;;;;3.35;1.90;;;;;;;23.05;58.48;101392.30;1700479;83;21045;-88
2022/07/24 07:09:58;;;;;;;2.95;2.00;;;;;;;23.36;58.31;101395.31;1709054;82;21018;-88
2022/07/24 07:12:25;;;;;;;4.20;1.72;;;;;;;23.61;57.83;101393.08;1707917;83;21728;-88
2022/07/24 07:14:51;;;;;;;4.92;2.02;;;;;;;23.66;57.08;101401.92;1693758;83;21090;-88
2022/07/24 07:17:18;;;;;;;2.42;1.82;;;;;;;23.65;56.90;101399.29;1685761;84;21062;-88
2022/07/24 07:19:45;;;;;;;2.17;1.50;;;;;;;23.60;56.53;101403.39;1688085;83;21376;-86
2022/07/24 07:22:12;;;;;;;4.47;2.90;;;;;;;23.54;56.53;101401.26;1680440;85;21514;-87
2022/07/24 07:24:38;;;;;;;3.12;2.30;;;;;;;23.63;56.75;101404.69;1682312;84;21776;-87
2022/07/24 07:27:10;;;;;;;4.40;2.00;;;;;;;23.72;56.26;101407.64;1652197;85;21094;-87
2022/07/24 07:29:37;;;;;;;3.20;2.15;;;;;;;23.50;55.66;101404.48;1679873;83;21139;-87
2022/07/24 07:32:08;;;;;;;2.30;2.00;;;;;;;23.22;55.22;101414.37;1685982;83;21156;-87
2022/07/24 07:34:34;;;;;;;2.22;1.67;;;;;;;22.89;55.11;101404.56;1682558;84;21182;-87
2022/07/24 07:37:01;;;;;;;4.15;1.67;;;;;;;22.62;55.52;101404.54;1678142;85;21747;-87
2022/07/24 07:39:28;;;;;;;3.45;2.05;;;;;;;22.55;55.94;101413.58;1681382;85;21032;-86
2022/07/24 07:41:57;;;;;;;2.70;1.92;;;;;;;22.57;56.17;101406.86;1681403;84;20976;-87
2022/07/24 07:44:23;;;;;;;4.67;2.02;;;;;;;22.67;56.20;101412.08;1691796;84;21319;-87
2022/07/24 07:46:50;;;;;;;2.00;1.80;;;;;;;22.80;56.26;101409.19;1682206;85;21103;-86
2022/07/24 07:49:17;;;;;;;1.75;1.50;;;;;;;22.97;55.98;101404.90;1682006;84;21736;-87
2022/07/24 07:51:47;;;;;;;2.05;1.40;;;;;;;23.13;55.54;101406.47;1678694;85;20995;-86
2022/07/24 07:54:12;;;;;;;6.00;2.10;;;;;;;23.13;55.14;101404.25;1681879;85;21503;-87
2022/07/24 07:56:42;;;;;;;3.00;1.70;;;;;;;23.11;55.09;101416.81;1681803;84;22140;-86
2022/07/24 07:59:10;;;;;;;4.08;1.75;;;;;;;22.91;54.98;101416.63;1676386;83;21132;-87
2022/07/24 08:01:37;;;;;;;2.35;1.60;;;;;;;22.61;54.64;101421.53;1695222;82;21751;-87
2022/07/24 08:04:03;;;;;;;4.92;1.82;;;;;;;22.32;55.17;101424.17;1696420;82;21126;-87
2022/07/24 08:06:31;;;;;;;4.47;2.33;;;;;;;22.14;55.56;101433.75;1673926;82;36739;-87
2022/07/24 08:08:58;;;;;;;3.25;2.17;;;;;;;22.03;55.88;101439.69;1699476;83;21087;-87
2022/07/24 08:11:25;;;;;;;7.15;2.17;;;;;;;22.02;56.23;101436.13;1696903;82;21591;-87
2022/07/24 08:13:55;;;;;;;3.77;2.27;;;;;;;22.22;56.57;101439.89;1694997;83;22910;-87
2022/07/24 08:16:23;;;;;;;3.00;2.20;;;;;;;22.50;56.43;101439.15;1682940;84;21124;-87
2022/07/24 08:18:50;;;;;;;3.37;2.33;;;;;;;22.59;56.13;101447.50;1684236;84;21088;-87
2022/07/24 08:21:18;;;;;;;3.27;2.22;;;;;;;22.54;55.87;101445.79;1697634;82;21064;-87
2022/07/24 08:23:47;;;;;;;2.40;2.20;;;;;;;22.35;55.83;101447.37;1682064;84;21597;-87
2022/07/24 08:26:14;;;;;;;6.05;2.30;;;;;;;22.26;55.96;101444.80;1681328;84;21848;-87
2022/07/24 08:28:40;;;;;;;3.17;2.22;;;;;;;22.14;55.96;101454.73;1696143;83;21079;-87
2022/07/24 08:31:07;;;;;;;4.10;3.37;;;;;;;21.90;55.98;101450.99;1687657;84;21648;-87
2022/07/24 08:33:34;;;;;;;6.42;2.58;;;;;;;21.72;56.38;101449.41;1701994;82;21137;-87
2022/07/24 08:36:01;;;;;;;4.35;2.90;;;;;;;21.57;56.58;101451.78;1707877;83;21093;-88
2022/07/24 08:38:28;;;;;;;6.12;3.15;;;;;;;21.51;56.84;101458.52;1700433;83;21753;-88
2022/07/24 08:40:55;;;;;;;3.55;2.80;;;;;;;21.58;57.33;101461.58;1682929;84;21966;-88
2022/07/24 08:43:22;;;;;;;3.98;2.70;;;;;;;21.92;57.46;101454.55;1687163;83;21142;-87
2022/07/24 08:45:50;;;;;;;5.58;2.72;;;;;;;22.31;57.29;101449.66;1691685;82;21075;-87
2022/07/24 08:48:17;;;;;;;1.98;1.67;;;;;;;22.63;56.89;101455.06;1694587;83;21718;-87
2022/07/24 08:50:44;;;;;;;4.37;1.90;;;;;;;22.83;56.36;101458.81;1695497;84;21925;-88
2022/07/24 08:53:11;;;;;;;4.37;2.08;;;;;;;22.88;56.09;101462.30;1695546;83;21592;-87
2022/07/24 08:55:38;;;;;;;5.10;2.60;;;;;;;22.84;55.64;101468.19;1695364;83;21871;-88
2022/07/24 08:58:05;;;;;;;4.85;2.17;;;;;;;22.67;55.34;101474.23;1694651;83;21092;-87
2022/07/24 09:00:32;;;;;;;5.85;5.10;;;;;;;22.43;55.22;101473.66;1687096;83;21095;-88
2022/07/24 09:02:59;;;;;;;5.08;4.00;;;;;;;22.24;55.48;101479.67;1682563;83;22678;-87
2022/07/24 09:05:25;;;;;;;5.72;3.98;;;;;;;22.14;55.69;101482.89;1682990;83;21631;-87
2022/07/24 09:08:16;;;;;;;4.83;1.90;;;;;;;22.05;55.78;101483.45;1682358;83;21082;-87
2022/07/24 09:10:56;;;;;;;4.20;2.45;;;;;;;21.99;55.98;101476.82;1673580;83;21166;-87
2022/07/24 09:14:29;;;;;;;4.75;2.55;;;;;;;21.87;55.63;101479.19;1671981;83;21145;-87
2022/07/24 09:15:59;;;;;;;6.22;2.52;;;;;;;21.55;55.64;101484.40;1655293;83;21984;-87
2022/07/24 09:18:54;;;;;;;5.72;4.15;;;;;;;21.40;56.04;101484.47;1680783;83;21125;-87
2022/07/24 09:21:14;;;;;;;9.53;5.37;;;;;;;21.33;56.51;101487.20;1674264;83;21091;-87
2022/07/24 09:23:43;;;;;;;5.33;3.50;;;;;;;21.36;56.67;101492.55;1673794;83;21127;-87
2022/07/24 09:26:21;;;;;;;5.87;2.80;;;;;;;21.35;57.13;101493.44;1678365;83;21625;-87
2022/07/24 09:28:53;;;;;;;4.28;3.02;;;;;;;21.32;57.69;101500.59;1669813;83;22696;-87
2022/07/24 09:31:23;;;;;;;6.03;4.60;;;;;;;21.16;58.01;101511.89;1680200;83;21103;-86
2022/07/24 09:33:50;;;;;;;4.72;3.83;;;;;;;21.07;58.49;101509.27;1673908;84;21095;-86
2022/07/24 09:36:18;;;;;;;3.67;2.92;;;;;;;21.22;58.81;101512.30;1680566;83;21158;-87
2022/07/24 09:38:50;;;;;;;3.52;3.20;;;;;;;21.43;59.01;101514.80;1679872;83;21155;-87
2022/07/24 09:41:23;;;;;;;6.28;4.05;;;;;;;21.44;58.66;101502.31;1676568;83;21824;-87
2022/07/24 09:43:59;;;;;;;115.97;47.20;;;;;;;21.63;59.09;101512.46;1677786;84;21072;-86
2022/07/24 09:46:28;;;;;;;15.20;7.87;;;;;;;22.12;59.26;101512.86;1670032;83;21100;-86
2022/07/24 09:48:58;;;;;;;5.33;3.30;;;;;;;22.68;58.92;101506.88;1674306;83;21209;-86
2022/07/24 09:51:27;;;;;;;3.05;2.55;;;;;;;23.11;58.25;101509.46;1680146;83;21498;-88
2022/07/24 09:53:58;;;;;;;5.00;2.72;;;;;;;23.49;57.67;101506.15;1676595;83;21959;-87
2022/07/24 09:56:27;;;;;;;4.60;2.58;;;;;;;23.63;56.84;101512.63;1661626;85;21198;-87
2022/07/24 09:59:00;;;;;;;3.67;2.40;;;;;;;23.79;56.74;101510.61;1648543;84;21135;-87
2022/07/24 10:01:37;;;;;;;3.65;2.17;;;;;;;24.02;56.11;101512.86;1649745;85;21106;-88
2022/07/24 10:04:04;;;;;;;5.80;2.12;;;;;;;24.18;55.55;101519.73;1647097;85;21178;-87
2022/07/24 10:06:38;;;;;;;3.80;1.90;;;;;;;24.33;55.31;101518.55;1638112;86;21527;-88
2022/07/24 10:09:11;;;;;;;2.77;1.70;;;;;;;24.55;55.14;101520.81;1627050;86;21207;-89
2022/07/24 10:11:50;;;;;;;2.95;2.00;;;;;;;24.75;54.77;101517.24;1652616;85;21137;-87
2022/07/24 10:14:28;;;;;;;4.45;2.22;;;;;;;24.98;54.26;101514.05;1655131;85;21074;-87
2022/07/24 10:17:05;;;;;;;3.47;2.15;;;;;;;25.05;53.64;101513.91;1649450;85;21108;-86
2022/07/24 10:19:56;;;;;;;6.75;1.90;;;;;;;24.96;53.42;101514.99;1616706;86;22063;-86
2022/07/24 10:22:26;;;;;;;5.83;1.92;;;;;;;24.80;53.04;101525.23;1652876;85;21165;-87
2022/07/24 10:25:16;;;;;;;1.92;1.75;;;;;;;24.47;53.08;101529.02;1649670;85;21145;-87
2022/07/24 10:27:58;;;;;;;5.42;2.50;;;;;;;24.06;53.20;101524.90;1652074;85;21094;-87
2022/07/24 10:30:28;;;;;;;6.22;2.60;;;;;;;23.68;53.46;101534.48;1649979;84;21109;-87
2022/07/24 10:33:02;;;;;;;3.92;2.17;;;;;;;23.23;53.53;101532.09;1649799;85;22574;-86
2022/07/24 10:35:44;;;;;;;2.62;1.95;;;;;;;22.93;54.26;101533.39;1639315;85;21731;-86
2022/07/24 10:38:15;;;;;;;4.20;2.25;;;;;;;22.86;54.66;101529.45;1647392;85;21357;-87
2022/07/24 10:40:46;;;;;;;5.30;2.90;;;;;;;23.04;54.89;101540.88;1660998;84;21145;-87
2022/07/24 10:43:15;;;;;;;2.83;2.17;;;;;;;23.23;54.76;101534.30;1656168;85;21213;-86
2022/07/24 10:45:46;;;;;;;4.55;2.62;;;;;;;23.39;54.58;101536.78;1617844;85;21228;-87
2022/07/24 10:48:31;;;;;;;3.30;2.12;;;;;;;23.63;54.50;101535.03;1651332;85;21163;-87
2022/07/24 10:51:05;;;;;;;;;;;;;;;23.98;54.33;101543.42;1658830;85;21091;-87
2022/07/24 10:53:33;;;;;;;2.58;1.80;;;;;;;24.30;53.74;101547.31;1656737;85;20640;-87
2022/07/24 10:56:29;;;;;;;2.85;2.12;;;;;;;24.53;53.31;101549.13;1650122;85;22375;-87
2022/07/24 10:59:11;;;;;;;2.45;1.57;;;;;;;24.62;52.93;101544.00;1627633;85;21583;-87
2022/07/24 11:01:47;;;;;;;2.40;2.10;;;;;;;24.65;52.00;101549.33;1657815;84;21056;-87
2022/07/24 11:04:24;;;;;;;4.50;2.42;;;;;;;24.54;51.89;101556.74;1667952;85;21093;-87
2022/07/24 11:07:06;;;;;;;4.80;1.75;;;;;;;24.66;52.01;101552.44;1667221;85;21537;-87
2022/07/24 11:09:31;;;;;;;5.50;1.82;;;;;;;24.88;51.97;101556.03;1670631;85;21115;-87
2022/07/24 11:12:07;;;;;;;3.87;2.05;;;;;;;24.99;51.67;101555.34;1663832;84;21747;-87
2022/07/24 11:14:47;;;;;;;3.22;1.90;;;;;;;25.05;51.22;101560.58;1656927;84;21119;-87
2022/07/24 11:17:43;;;;;;;3.05;1.87;;;;;;;25.00;51.10;101553.96;1662278;85;21119;-87
2022/07/24 11:20:21;;;;;;;4.00;1.87;;;;;;;25.09;51.25;101554.66;1670790;85;21155;-87
2022/07/24 11:23:00;;;;;;;3.15;2.30;;;;;;;25.13;51.09;101541.55;1617890;85;21943;-86
2022/07/24 11:25:28;;;;;;;5.45;2.20;;;;;;;25.34;50.81;101558.61;1648148;83;21682;-86
2022/07/24 11:27:58;;;;;;;5.30;1.85;;;;;;;25.58;50.81;101551.73;1679861;84;21191;-87
2022/07/24 11:30:27;;;;;;;4.50;2.12;;;;;;;25.91;50.56;101559.88;1674833;84;21111;-88